Time;durP1;ratioP1;P1;durP2;ratioP2;P2;SDS_P1;SDS_P2;PMS_P1;PMS_P2;Temp;Humidity;BMP_temperature;BMP_pressure;BME280_temperature;BME280_humidity;BME280_pressure;Samples;Min_cycle;Max_cycle;Signal;HPM_P1;HPM_P2
2023/03/09 00:02:20;;;;;;;10.23;4.85;;;;;;;11.75;94.11;97467.41;5090734;28;20093;-47
2023/03/09 00:05:02;;;;;;;9.32;5.07;;;;;;;11.82;89.13;97464.66;5090753;28;20020;-47
2023/03/09 00:07:30;;;;;;;7.68;5.10;;;;;;;11.93;91.46;97461.16;5092302;28;20031;-47
2023/03/09 00:10:14;;;;;;;7.90;5.90;;;;;;;11.90;91.09;97478.22;5091677;28;20020;-47
2023/03/09 00:12:41;;;;;;;6.75;5.90;;;;;;;11.88;91.04;97464.47;5090771;28;20051;-46
2023/03/09 00:15:09;;;;;;;9.38;5.57;;;;;;;11.85;90.40;97491.25;5090600;28;20117;-46
2023/03/09 00:17:38;;;;;;;9.20;7.07;;;;;;;11.79;89.50;97471.16;5088989;28;20036;-46
2023/03/09 00:20:24;;;;;;;9.65;6.65;;;;;;;11.72;91.50;97478.41;5091896;28;20404;-46
2023/03/09 00:23:11;;;;;;;9.70;6.57;;;;;;;11.69;91.29;97484.13;5091973;28;20052;-46
2023/03/09 00:25:57;;;;;;;9.43;6.10;;;;;;;11.68;91.73;97482.56;5090461;28;20042;-46
2023/03/09 00:28:29;;;;;;;;;;;;;;;11.67;91.67;97466.00;5092301;28;20067;-45
2023/03/09 00:31:25;;;;;;;11.38;6.15;;;;;;;11.69;90.91;97481.50;5090429;28;19918;-46
2023/03/09 00:34:06;;;;;;;13.13;7.90;;;;;;;11.63;90.39;97483.28;5091880;28;20032;-47
2023/03/09 00:36:42;;;;;;;11.15;7.28;;;;;;;11.64;91.89;97476.97;5090042;28;20052;-47
2023/03/09 00:39:09;;;;;;;;;;;;;;;11.68;92.02;97480.72;5092101;28;20512;-46
2023/03/09 00:41:40;;;;;;;10.02;6.80;;;;;;;11.73;91.45;97480.81;5090355;28;19908;-46
2023/03/09 00:44:15;;;;;;;13.30;7.57;;;;;;;11.77;90.84;97500.34;5090467;28;20460;-48
2023/03/09 00:46:49;;;;;;;13.85;8.13;;;;;;;11.86;92.00;97486.78;5091690;28;20020;-46
2023/03/09 00:49:33;;;;;;;9.70;6.13;;;;;;;11.92;90.88;97504.28;5091350;28;20567;-46
2023/03/09 00:52:11;;;;;;;9.18;6.25;;;;;;;11.90;90.21;97512.41;5091682;28;20047;-47
2023/03/09 00:54:41;;;;;;;10.93;6.63;;;;;;;11.95;91.72;97520.38;5091495;28;20016;-46
2023/03/09 00:57:13;;;;;;;9.30;5.28;;;;;;;12.08;90.87;97515.84;5091503;28;20032;-46
2023/03/09 00:59:52;;;;;;;10.05;6.10;;;;;;;12.15;89.81;97522.53;5091586;28;20457;-47
2023/03/09 01:02:27;;;;;;;11.25;6.72;;;;;;;12.09;88.45;97523.50;5091434;28;20429;-46
2023/03/09 01:04:53;;;;;;;11.13;7.18;;;;;;;12.08;89.04;97521.88;5090232;28;20024;-46
2023/03/09 01:07:31;;;;;;;7.57;5.25;;;;;;;12.10;83.41;97516.41;5091393;28;20024;-47
2023/03/09 01:10:05;;;;;;;13.15;6.57;;;;;;;12.08;85.82;97534.25;5091414;28;20131;-46
2023/03/09 01:12:39;;;;;;;9.07;6.35;;;;;;;12.13;87.50;97547.47;5091469;28;20027;-46
2023/03/09 01:15:11;;;;;;;8.00;5.47;;;;;;;12.13;87.44;97536.94;5091317;28;20021;-46
2023/03/09 01:17:47;;;;;;;7.88;5.30;;;;;;;12.11;85.43;97550.34;5091446;28;20109;-47
2023/03/09 01:20:23;;;;;;;10.13;6.03;;;;;;;12.08;87.02;97550.81;5091307;28;20031;-46
2023/03/09 01:22:54;;;;;;;13.88;6.38;;;;;;;12.03;85.88;97563.06;5091830;28;20119;-46
2023/03/09 01:25:32;;;;;;;11.60;6.43;;;;;;;12.02;85.55;97557.03;5095003;28;20028;-47
2023/03/09 01:28:10;;;;;;;10.60;7.00;;;;;;;12.01;86.21;97568.56;5093718;28;20027;-47
2023/03/09 01:30:46;;;;;;;13.18;6.57;;;;;;;12.07;87.34;97580.75;5094890;28;20439;-46
2023/03/09 01:33:18;;;;;;;;;;;;;;;12.08;86.18;97579.75;5095396;28;20020;-46
2023/03/09 01:35:59;;;;;;;10.70;6.60;;;;;;;12.03;86.77;97586.75;5104274;28;20377;-47
2023/03/09 01:38:34;;;;;;;11.68;6.35;;;;;;;12.05;86.35;97587.31;5115258;28;20020;-47
2023/03/09 01:41:04;;;;;;;9.13;4.95;;;;;;;12.06;82.81;97592.34;5096796;28;20066;-46
2023/03/09 01:44:15;;;;;;;10.27;5.20;;;;;;;12.12;81.22;97593.22;5079897;28;20548;-47
2023/03/09 01:46:52;;;;;;;9.63;7.22;;;;;;;12.17;84.52;97602.00;5114985;28;20192;-46
2023/03/09 01:49:52;;;;;;;11.07;6.78;;;;;;;12.19;85.35;97591.22;5114839;28;20050;-46
2023/03/09 01:52:40;;;;;;;8.70;6.07;;;;;;;12.26;85.25;97599.78;5114957;28;20027;-46
2023/03/09 01:55:44;;;;;;;9.18;5.88;;;;;;;12.38;84.77;97602.34;5096469;28;20036;-48
2023/03/09 01:58:23;;;;;;;10.70;6.13;;;;;;;12.42;85.55;97592.94;5114839;28;20031;-48
2023/03/09 02:01:14;;;;;;;8.77;6.03;;;;;;;12.41;86.48;97608.94;5096379;28;20036;-46
2023/03/09 02:04:19;;;;;;;8.18;6.07;;;;;;;12.41;86.24;97601.06;5114754;28;20507;-47
2023/03/09 02:07:03;;;;;;;10.98;5.60;;;;;;;12.45;86.23;97605.59;5114622;28;20115;-47
2023/03/09 02:10:05;;;;;;;9.00;5.43;;;;;;;12.44;86.44;97606.66;5096259;28;20156;-47
2023/03/09 02:12:52;;;;;;;10.60;5.18;;;;;;;12.42;82.60;97600.03;5061352;28;20032;-47
2023/03/09 02:15:36;;;;;;;7.72;4.65;;;;;;;12.41;83.38;97601.84;5114204;28;20035;-46
2023/03/09 02:18:15;;;;;;;8.95;4.90;;;;;;;12.37;82.55;97606.00;5096105;28;20028;-47
2023/03/09 02:21:45;;;;;;;7.97;5.78;;;;;;;12.37;82.66;97606.00;5096147;28;20035;-47
2023/03/09 02:25:23;;;;;;;9.35;5.07;;;;;;;12.51;83.88;97609.91;5114386;28;20123;-47
2023/03/09 02:27:53;;;;;;;6.82;4.70;;;;;;;12.43;84.37;97618.19;5095949;28;20085;-46
2023/03/09 02:30:44;;;;;;;9.95;5.72;;;;;;;12.40;81.56;97605.53;5114139;28;20378;-46
2023/03/09 02:33:30;;;;;;;11.05;5.70;;;;;;;12.45;83.20;97613.50;5095749;28;20096;-47
2023/03/09 02:36:14;;;;;;;8.40;5.10;;;;;;;12.49;82.63;97609.34;5111756;28;20047;-47
2023/03/09 02:38:50;;;;;;;11.07;5.28;;;;;;;12.52;82.46;97618.63;5114136;28;20221;-47
2023/03/09 02:41:30;;;;;;;10.15;5.32;;;;;;;12.49;79.76;97613.81;5095692;28;20573;-47
2023/03/09 02:44:17;;;;;;;7.50;4.90;;;;;;;12.46;79.75;97620.38;5113879;28;20032;-46
2023/03/09 02:46:45;;;;;;;8.00;4.68;;;;;;;12.41;78.93;97628.16;5095516;28;20022;-47
2023/03/09 02:49:12;;;;;;;8.20;4.90;;;;;;;12.29;80.09;97625.59;5095335;28;20028;-46
2023/03/09 02:51:47;;;;;;;8.15;5.30;;;;;;;12.17;79.72;97620.41;5095601;28;20385;-47
2023/03/09 02:54:22;;;;;;;7.82;4.97;;;;;;;12.15;79.14;97616.41;5113773;28;20063;-46
2023/03/09 02:56:48;;;;;;;8.35;5.05;;;;;;;12.19;79.51;97628.88;5113622;28;20055;-47
2023/03/09 02:59:20;;;;;;;14.35;5.70;;;;;;;12.19;81.24;97628.06;5078661;28;20042;-46
2023/03/09 03:01:49;;;;;;;8.60;4.88;;;;;;;12.16;79.63;97621.44;5113393;28;20024;-47
2023/03/09 03:04:34;;;;;;;10.63;5.80;;;;;;;12.11;79.84;97617.91;5095152;28;20485;-46
2023/03/09 03:07:17;;;;;;;5.47;4.27;;;;;;;12.13;78.16;97632.44;5113575;28;20038;-48
2023/03/09 03:09:59;;;;;;;8.77;4.78;;;;;;;12.16;79.21;97628.53;5113267;28;20019;-47
2023/03/09 03:12:42;;;;;;;6.35;4.43;;;;;;;12.14;76.67;97627.97;5113385;28;20020;-47
2023/03/09 03:15:17;;;;;;;8.18;5.03;;;;;;;12.07;76.89;97636.00;5094930;28;20047;-46
2023/03/09 03:17:52;;;;;;;6.97;5.40;;;;;;;11.99;78.65;97636.38;5113286;28;20024;-46
2023/03/09 03:20:38;;;;;;;9.18;5.05;;;;;;;12.02;78.30;97641.19;5113171;28;20027;-46
2023/03/09 03:23:10;;;;;;;8.25;5.20;;;;;;;12.09;78.07;97633.13;5113220;28;20019;-46
2023/03/09 03:25:48;;;;;;;6.25;4.90;;;;;;;12.01;77.69;97641.41;5094758;28;20027;-47
2023/03/09 03:28:32;;;;;;;7.93;4.63;;;;;;;12.01;75.58;97644.03;5112985;28;20089;-47
2023/03/09 03:31:12;;;;;;;8.80;5.07;;;;;;;11.92;78.14;97647.03;5112989;28;20028;-47
2023/03/09 03:33:56;;;;;;;9.18;4.40;;;;;;;11.90;79.91;97646.47;5112845;28;20050;-46
2023/03/09 03:36:38;;;;;;;7.97;5.28;;;;;;;11.88;78.55;97645.09;5090973;28;20617;-47
2023/03/09 03:39:06;;;;;;;5.85;4.35;;;;;;;11.84;78.25;97657.91;5092577;28;20036;-47
2023/03/09 03:41:43;;;;;;;11.00;5.25;;;;;;;11.82;77.78;97651.28;5091140;28;20036;-47
2023/03/09 03:44:22;;;;;;;7.63;4.10;;;;;;;11.82;77.48;97653.91;5091192;28;20028;-47
2023/03/09 03:47:03;;;;;;;8.95;4.80;;;;;;;11.79;76.72;97649.91;5073929;28;20044;-47
2023/03/09 03:49:47;;;;;;;6.63;4.90;;;;;;;11.78;75.88;97653.56;5092112;28;20020;-47
2023/03/09 03:52:23;;;;;;;10.00;5.03;;;;;;;11.77;78.24;97659.84;5090962;28;20051;-48
2023/03/09 03:54:58;;;;;;;9.57;4.50;;;;;;;11.82;80.55;97659.97;5092191;28;20038;-46
2023/03/09 03:57:47;;;;;;;9.35;4.80;;;;;;;11.87;78.41;97664.50;5092243;28;20103;-47
2023/03/09 04:00:20;;;;;;;9.70;4.38;;;;;;;11.89;77.87;97673.81;5092236;28;20089;-46
2023/03/09 04:02:46;;;;;;;8.25;4.47;;;;;;;11.83;77.20;97668.63;5092416;28;20393;-47
2023/03/09 04:05:33;;;;;;;13.15;4.72;;;;;;;11.72;77.97;97672.91;5074011;28;20028;-47
2023/03/09 04:08:21;;;;;;;8.68;4.20;;;;;;;11.73;79.41;97663.97;5092078;28;20024;-47
2023/03/09 04:11:26;;;;;;;14.75;4.82;;;;;;;11.77;78.46;97675.63;5091970;28;20485;-48
2023/03/09 04:13:56;;;;;;;9.10;4.68;;;;;;;11.76;78.81;97674.84;5090687;28;20035;-47
2023/03/09 04:16:38;;;;;;;6.90;4.38;;;;;;;11.77;77.28;97681.69;5090595;28;20089;-47
2023/03/09 04:19:05;;;;;;;7.78;4.40;;;;;;;11.79;77.85;97690.16;5092160;28;20123;-46
2023/03/09 04:21:32;;;;;;;15.98;5.22;;;;;;;11.82;78.31;97688.09;5090530;28;20032;-46
2023/03/09 04:23:59;;;;;;;9.88;4.70;;;;;;;11.85;78.03;97693.69;5091901;28;20012;-47
2023/03/09 04:26:26;;;;;;;9.50;4.35;;;;;;;11.86;77.56;97694.47;5090519;28;20036;-47
2023/03/09 04:28:55;;;;;;;7.25;3.80;;;;;;;11.84;78.11;97696.53;5091688;28;20024;-47
2023/03/09 04:31:22;;;;;;;9.77;4.10;;;;;;;11.84;79.33;97701.81;5090474;28;20073;-46
2023/03/09 04:33:48;;;;;;;12.07;3.92;;;;;;;11.77;77.72;97712.41;5091767;28;20073;-46
2023/03/09 04:36:15;;;;;;;7.93;3.45;;;;;;;11.66;78.55;97714.06;5103277;28;20055;-47
2023/03/09 04:38:43;;;;;;;5.85;3.78;;;;;;;11.52;80.21;97721.38;5093771;28;20476;-47
2023/03/09 04:41:12;;;;;;;10.45;3.83;;;;;;;11.47;80.05;97721.28;5093767;28;20026;-47
2023/03/09 04:43:39;;;;;;;7.90;3.83;;;;;;;11.41;80.70;97727.47;5112044;28;20382;-47
2023/03/09 04:46:05;;;;;;;8.60;4.18;;;;;;;11.17;80.94;97731.91;5111981;28;20110;-47
2023/03/09 04:48:32;;;;;;;9.35;4.88;;;;;;;10.97;81.75;97726.97;5112045;28;20115;-47
2023/03/09 04:50:59;;;;;;;7.07;4.22;;;;;;;10.98;81.53;97731.97;5093627;28;20078;-47
2023/03/09 04:53:28;;;;;;;6.53;3.95;;;;;;;11.14;80.28;97737.59;5111958;28;20051;-47
2023/03/09 04:55:56;;;;;;;10.75;3.60;;;;;;;11.25;79.21;97741.25;5093575;28;20062;-47
2023/03/09 04:58:23;;;;;;;11.43;4.25;;;;;;;11.32;78.88;97740.13;5096462;28;20032;-47
2023/03/09 05:00:50;;;;;;;7.75;3.45;;;;;;;11.45;80.14;97746.16;5115917;28;20032;-47
2023/03/09 05:03:17;;;;;;;8.43;3.83;;;;;;;11.49;79.15;97745.50;5097567;28;20118;-47
2023/03/09 05:05:44;;;;;;;7.10;4.47;;;;;;;11.51;79.03;97753.94;5115860;28;20087;-47
2023/03/09 05:08:10;;;;;;;9.23;3.60;;;;;;;11.39;78.51;97751.31;5115852;28;20020;-47
2023/03/09 05:10:37;;;;;;;8.88;4.40;;;;;;;11.38;78.68;97741.81;5097219;28;20526;-47
2023/03/09 05:13:04;;;;;;;9.70;3.50;;;;;;;11.58;79.10;97744.09;5115760;28;20499;-47
2023/03/09 05:15:32;;;;;;;13.98;4.82;;;;;;;11.72;74.18;97736.00;5115688;28;20027;-46
2023/03/09 05:17:58;;;;;;;7.15;3.65;;;;;;;11.87;73.60;97738.94;5115653;28;20072;-46
2023/03/09 05:20:26;;;;;;;5.50;2.63;;;;;;;11.96;71.96;97742.81;5115598;28;20028;-47
2023/03/09 05:22:56;;;;;;;7.68;3.28;;;;;;;12.04;72.00;97744.28;5115466;28;20549;-46
2023/03/09 05:25:23;;;;;;;12.18;4.32;;;;;;;12.22;71.55;97745.16;5097483;28;20224;-47
2023/03/09 05:27:50;;;;;;;7.50;4.00;;;;;;;12.34;71.44;97743.28;5115498;28;20027;-47
2023/03/09 05:30:19;;;;;;;14.65;4.00;;;;;;;12.32;71.43;97737.47;5115360;28;20031;-47
2023/03/09 05:32:48;;;;;;;6.60;3.55;;;;;;;12.19;71.71;97731.47;5115389;28;20438;-47
2023/03/09 05:35:16;;;;;;;11.75;3.97;;;;;;;11.90;72.72;97732.44;5096774;28;20481;-47
2023/03/09 05:37:44;;;;;;;8.20;4.18;;;;;;;11.69;71.26;97736.44;5096949;28;20031;-47
2023/03/09 05:40:12;;;;;;;9.85;3.58;;;;;;;11.48;73.83;97735.22;5096784;28;20095;-46
2023/03/09 05:42:57;;;;;;;8.60;4.07;;;;;;;11.42;72.39;97739.53;5115151;28;20031;-47
2023/03/09 05:45:26;;;;;;;10.53;3.73;;;;;;;11.49;74.42;97736.78;5097128;28;20138;-47
2023/03/09 05:47:52;;;;;;;16.25;4.72;;;;;;;11.40;74.63;97749.47;5115077;28;20266;-46
2023/03/09 05:50:24;;;;;;;8.45;3.30;;;;;;;11.30;74.84;97744.00;5114766;28;20578;-46
2023/03/09 05:52:55;;;;;;;14.98;3.60;;;;;;;11.33;75.58;97754.84;5114892;28;20397;-47
2023/03/09 05:55:21;;;;;;;9.38;4.03;;;;;;;11.43;74.84;97751.66;5114882;28;20024;-46
2023/03/09 05:57:50;;;;;;;14.20;3.47;;;;;;;11.50;75.13;97751.53;5096608;28;20509;-46
2023/03/09 06:00:37;;;;;;;11.68;3.65;;;;;;;11.52;72.26;97758.16;5096460;28;20058;-46
2023/03/09 06:03:03;;;;;;;12.85;4.65;;;;;;;11.56;73.95;97755.88;5096409;28;20031;-46
2023/03/09 06:05:29;;;;;;;11.65;4.03;;;;;;;11.58;74.02;97761.72;5114751;28;20019;-47
2023/03/09 06:08:10;;;;;;;7.30;3.95;;;;;;;11.65;73.94;97767.66;5095912;28;20514;-47
2023/03/09 06:10:50;;;;;;;11.07;3.70;;;;;;;11.59;75.30;97765.94;5114441;28;20032;-47
2023/03/09 06:13:20;;;;;;;10.82;4.50;;;;;;;11.43;75.51;97758.72;5114789;28;20481;-47
2023/03/09 06:15:46;;;;;;;10.63;4.57;;;;;;;11.21;76.94;97767.19;5096429;28;20030;-46
2023/03/09 06:18:13;;;;;;;12.57;4.10;;;;;;;11.05;76.72;97773.09;5096154;28;20059;-47
2023/03/09 06:20:49;;;;;;;16.50;3.90;;;;;;;11.18;77.41;97767.63;5096393;28;20032;-47
2023/03/09 06:23:16;;;;;;;10.88;3.72;;;;;;;11.69;77.62;97771.44;5114314;28;20034;-46
2023/03/09 06:25:54;;;;;;;16.08;4.82;;;;;;;12.26;75.61;97773.41;5114305;28;20386;-47
2023/03/09 06:28:21;;;;;;;11.25;4.25;;;;;;;12.46;73.81;97774.84;5095948;28;20111;-46
2023/03/09 06:30:48;;;;;;;10.82;4.35;;;;;;;12.86;69.90;97772.13;5114146;28;20481;-46
2023/03/09 06:33:15;;;;;;;13.38;4.55;;;;;;;13.37;66.03;97777.44;5114203;28;20033;-46
2023/03/09 06:35:42;;;;;;;8.77;3.50;;;;;;;13.65;63.35;97765.19;5092260;28;20098;-46
2023/03/09 06:38:09;;;;;;;12.05;4.68;;;;;;;13.71;65.00;97772.13;5092445;28;20028;-47
2023/03/09 06:40:37;;;;;;;25.02;5.03;;;;;;;14.31;63.69;97775.78;5093590;28;20024;-46
2023/03/09 06:43:03;;;;;;;10.75;4.97;;;;;;;14.65;61.39;97768.53;5092268;28;20114;-47
2023/03/09 06:45:31;;;;;;;11.68;5.55;;;;;;;14.38;60.63;97771.88;5075467;28;20111;-47
2023/03/09 06:47:58;;;;;;;12.80;5.32;;;;;;;14.45;61.62;97769.06;5093543;28;20024;-46
2023/03/09 06:50:26;;;;;;;12.50;4.75;;;;;;;14.47;61.92;97764.34;5093390;28;20073;-47
2023/03/09 06:52:53;;;;;;;6.55;3.72;;;;;;;14.17;58.97;97764.81;5093413;28;20097;-47
2023/03/09 06:55:20;;;;;;;6.15;3.58;;;;;;;13.74;60.18;97774.28;5093318;28;20024;-47
2023/03/09 06:57:47;;;;;;;16.23;4.65;;;;;;;13.47;64.08;97776.81;5093279;28;20059;-47
2023/03/09 07:00:30;;;;;;;15.63;5.68;;;;;;;13.31;66.27;97776.56;5091939;28;20086;-47
2023/03/09 07:03:18;;;;;;;20.63;4.82;;;;;;;13.19;67.67;97784.50;5093167;28;20062;-46
2023/03/09 07:06:02;;;;;;;9.40;3.90;;;;;;;13.14;67.37;97784.44;5093162;28;20106;-47
2023/03/09 07:08:29;;;;;;;9.35;4.20;;;;;;;13.29;66.76;97791.00;5091796;28;20031;-47
2023/03/09 07:10:56;;;;;;;11.70;4.00;;;;;;;13.63;66.89;97785.72;5092978;28;20043;-46
2023/03/09 07:13:23;;;;;;;8.18;4.32;;;;;;;14.54;63.86;97783.41;5092996;28;20103;-47
2023/03/09 07:15:49;;;;;;;10.18;4.15;;;;;;;15.53;61.93;97791.16;5092922;28;20028;-47
2023/03/09 07:18:18;;;;;;;13.75;4.53;;;;;;;16.55;60.38;97790.91;5093034;28;20028;-47
2023/03/09 07:20:45;;;;;;;9.73;4.15;;;;;;;17.37;57.20;97793.66;5092171;28;20038;-47
2023/03/09 07:23:18;;;;;;;8.88;4.10;;;;;;;18.01;56.55;97796.75;5092834;28;20024;-45
2023/03/09 07:25:45;;;;;;;6.43;4.18;;;;;;;18.51;55.50;97798.44;5093136;28;20024;-45
2023/03/09 07:28:12;;;;;;;10.65;4.63;;;;;;;18.93;52.19;97804.31;5092906;28;20528;-45
2023/03/09 07:30:39;;;;;;;10.63;4.95;;;;;;;19.20;53.46;97809.19;5092703;28;20035;-45
2023/03/09 07:33:06;;;;;;;10.20;4.15;;;;;;;19.91;51.14;97812.28;5092607;28;20020;-45
2023/03/09 07:35:34;;;;;;;14.98;5.75;;;;;;;20.59;50.85;97823.78;5097834;28;20441;-45
2023/03/09 07:38:01;;;;;;;9.25;4.60;;;;;;;21.12;49.43;97818.22;5113013;28;20043;-45
2023/03/09 07:40:28;;;;;;;12.73;4.95;;;;;;;21.72;47.21;97812.19;5112932;28;20086;-46
2023/03/09 07:42:56;;;;;;;5.93;3.80;;;;;;;21.84;47.32;97807.16;5094569;28;20110;-45
2023/03/09 07:45:40;;;;;;;14.75;5.88;;;;;;;22.07;45.50;97817.97;5112722;28;20520;-45
2023/03/09 07:48:26;;;;;;;17.20;4.70;;;;;;;22.54;45.34;97816.00;5112834;28;20028;-45
2023/03/09 07:51:18;;;;;;;10.00;3.80;;;;;;;22.87;43.33;97819.25;5091743;28;20058;-46
2023/03/09 07:53:56;;;;;;;5.97;3.33;;;;;;;22.97;43.72;97822.81;5112641;28;20558;-46
2023/03/09 07:56:38;;;;;;;7.70;3.40;;;;;;;23.02;44.13;97828.88;5112594;28;20530;-44
2023/03/09 07:59:15;;;;;;;9.40;3.85;;;;;;;23.64;43.10;97825.53;5112614;28;20020;-46
2023/03/09 08:01:49;;;;;;;14.27;4.10;;;;;;;24.22;43.36;97828.28;5077504;28;20054;-46
2023/03/09 08:04:16;;;;;;;8.93;3.60;;;;;;;24.99;40.47;97818.81;5112574;28;20032;-45
2023/03/09 08:06:51;;;;;;;19.98;4.45;;;;;;;25.44;40.31;97831.91;5094172;28;20508;-46
2023/03/09 08:09:37;;;;;;;12.95;3.67;;;;;;;25.55;36.91;97810.06;5112368;28;20106;-46
2023/03/09 08:12:17;;;;;;;18.08;4.78;;;;;;;24.88;36.81;97804.91;5112343;28;20073;-46
2023/03/09 08:14:56;;;;;;;6.35;3.45;;;;;;;24.23;37.23;97822.63;5094031;28;20408;-46
2023/03/09 08:17:24;;;;;;;126.35;66.20;;;;;;;23.80;37.73;97825.13;5093965;28;20421;-45
2023/03/09 08:20:00;;;;;;;49.22;20.38;;;;;;;23.78;40.04;97828.13;5094145;28;20054;-46
2023/03/09 08:22:27;;;;;;;6.15;3.85;;;;;;;24.18;37.81;97840.75;5112294;28;20149;-45
2023/03/09 08:24:55;;;;;;;9.30;3.90;;;;;;;24.06;37.80;97836.75;5112222;28;20103;-46
2023/03/09 08:27:23;;;;;;;7.60;3.78;;;;;;;24.32;36.94;97830.69;5093895;28;20034;-46
2023/03/09 08:29:51;;;;;;;13.45;4.43;;;;;;;24.12;37.10;97845.44;5112115;28;20015;-45
2023/03/09 08:32:31;;;;;;;22.38;6.47;;;;;;;23.69;37.04;97824.59;5098585;28;20038;-46
2023/03/09 08:34:58;;;;;;;16.27;5.55;;;;;;;23.20;37.03;97834.34;5118644;28;20140;-46
2023/03/09 08:37:35;;;;;;;13.25;4.97;;;;;;;22.68;39.21;97837.38;5100517;28;20040;-46
2023/03/09 08:40:11;;;;;;;;;;;;;;;;;;;;;
2023/03/09 08:42:48;;;;;;;18.23;4.82;;;;;;;22.42;40.43;97845.13;5117686;28;20048;-46
2023/03/09 08:45:15;;;;;;;11.60;4.40;;;;;;;23.04;38.83;97847.28;5118789;28;20042;-45
2023/03/09 08:47:49;;;;;;;11.20;3.40;;;;;;;;;;5118811;28;20032;-47
2023/03/09 08:50:27;;;;;;;35.13;5.30;;;;;;;23.35;38.91;97838.56;5118657;28;20016;-46
2023/03/09 08:53:09;;;;;;;6.60;3.13;;;;;;;23.72;38.64;97840.84;5118924;28;20493;-46
2023/03/09 08:55:49;;;;;;;10.48;4.13;;;;;;;24.40;40.49;97848.69;5118786;28;20100;-45
2023/03/09 08:58:27;;;;;;;9.18;3.22;;;;;;;25.50;39.36;97849.44;5118805;28;20497;-46
2023/03/09 09:01:09;;;;;;;9.13;4.70;;;;;;;26.05;38.40;97839.81;5118709;28;20072;-46
2023/03/09 09:03:45;;;;;;;9.40;3.70;;;;;;;26.18;34.79;97834.53;5118749;28;20030;-46
2023/03/09 09:06:33;;;;;;;9.38;3.58;;;;;;;25.40;35.42;97840.94;5118628;28;20024;-46
2023/03/09 09:09:00;;;;;;;7.50;3.88;;;;;;;25.22;36.31;97834.78;5118577;28;20034;-45
2023/03/09 09:11:27;;;;;;;8.50;4.28;;;;;;;24.64;36.46;97848.31;5118600;28;20039;-46
2023/03/09 09:13:56;;;;;;;8.80;4.55;;;;;;;23.75;36.26;97849.38;5118808;28;20392;-45
2023/03/09 09:16:23;;;;;;;23.42;6.38;;;;;;;23.49;37.96;97848.09;5118628;28;20371;-45
2023/03/09 09:18:50;;;;;;;9.05;3.70;;;;;;;23.71;37.38;97844.59;5118461;28;20092;-46
2023/03/09 09:21:17;;;;;;;12.90;5.07;;;;;;;23.66;37.33;97849.28;5118605;28;20143;-45
2023/03/09 09:23:46;;;;;;;8.32;4.32;;;;;;;23.88;38.39;97853.84;5118421;28;20031;-45
2023/03/09 09:26:14;;;;;;;7.20;4.07;;;;;;;24.43;37.13;97849.97;5100163;28;20062;-45
2023/03/09 09:28:44;;;;;;;15.98;4.80;;;;;;;24.79;37.36;97851.63;5100154;28;20035;-46
2023/03/09 09:31:23;;;;;;;6.30;3.42;;;;;;;24.61;34.83;97848.13;5118382;28;20038;-45
2023/03/09 09:33:50;;;;;;;11.70;4.10;;;;;;;24.35;34.85;97834.63;5118491;28;20023;-45
2023/03/09 09:36:18;;;;;;;6.78;3.25;;;;;;;23.90;35.38;97840.94;5118075;28;20088;-46
2023/03/09 09:38:46;;;;;;;15.57;3.67;;;;;;;23.87;37.70;97836.22;5118324;28;20431;-46
2023/03/09 09:41:55;;;;;;;10.45;3.67;;;;;;;24.04;36.54;97832.81;5099945;28;20586;-45
2023/03/09 09:44:51;;;;;;;19.88;5.30;;;;;;;24.30;37.97;97824.84;5111768;28;20040;-45
2023/03/09 09:47:22;;;;;;;;;;;;;;;24.68;37.35;97809.00;5115450;28;20062;-45
2023/03/09 09:49:52;;;;;;;9.60;3.70;;;;;;;24.02;36.24;97818.91;5115318;28;19912;-45
2023/03/09 09:52:58;;;;;;;24.88;5.93;;;;;;;22.51;37.43;97827.28;5115046;28;20027;-45
2023/03/09 09:55:41;;;;;;;14.45;5.85;;;;;;;21.03;41.32;97849.34;5114923;28;20132;-44
2023/03/09 09:58:30;;;;;;;83.28;29.77;;;;;;;20.67;41.74;97855.16;5096595;28;20037;-45
2023/03/09 10:01:05;;;;;;;28.70;7.07;;;;;;;20.42;42.96;97849.00;5114819;28;20530;-45
2023/03/09 10:03:41;;;;;;;14.80;4.38;;;;;;;20.11;43.23;97846.69;5114837;28;20038;-45
2023/03/09 10:06:22;;;;;;;14.40;4.30;;;;;;;20.03;44.47;97851.84;5114769;28;20031;-45
2023/03/09 10:08:58;;;;;;;13.80;4.50;;;;;;;19.91;43.67;97838.91;5114600;28;20023;-45
2023/03/09 10:11:31;;;;;;;16.33;4.57;;;;;;;19.92;44.06;97835.16;5114625;28;20121;-45
2023/03/09 10:14:26;;;;;;;18.25;3.92;;;;;;;20.34;44.14;97829.13;5114638;28;20055;-45
2023/03/09 10:17:18;;;;;;;8.20;3.42;;;;;;;20.90;45.12;97832.16;5114602;28;20027;-45
2023/03/09 10:19:48;;;;;;;8.43;3.28;;;;;;;21.24;43.59;97837.25;5096053;28;20024;-45
2023/03/09 10:22:24;;;;;;;7.13;3.28;;;;;;;21.52;42.67;97838.16;5114306;28;20032;-45
2023/03/09 10:24:53;;;;;;;7.63;3.63;;;;;;;21.62;40.93;97821.19;5114433;28;20405;-45
2023/03/09 10:28:04;;;;;;;13.65;3.65;;;;;;;21.83;42.04;97826.16;5114377;28;20026;-45
2023/03/09 10:31:17;;;;;;;27.67;5.10;;;;;;;22.08;40.85;97820.34;5105901;28;20059;-45
2023/03/09 10:34:09;;;;;;;7.88;3.15;;;;;;;22.33;40.95;97815.59;5114022;28;20039;-46
2023/03/09 10:37:15;;;;;;;35.13;6.38;;;;;;;22.19;40.31;97815.59;5113526;28;20489;-46
2023/03/09 10:39:57;;;;;;;18.08;4.10;;;;;;;22.76;40.99;97807.22;5114049;28;20526;-46
2023/03/09 10:42:37;;;;;;;7.72;3.40;;;;;;;23.69;40.43;97822.69;5113846;28;20036;-47
2023/03/09 10:45:36;;;;;;;20.88;4.75;;;;;;;23.79;37.98;97812.84;5113795;28;20067;-46
2023/03/09 10:48:15;;;;;;;23.17;4.80;;;;;;;23.20;37.13;97812.94;5095619;28;20148;-45
2023/03/09 10:51:01;;;;;;;14.35;3.65;;;;;;;22.85;37.07;97799.25;5113711;28;20152;-46
2023/03/09 10:54:03;;;;;;;7.40;2.95;;;;;;;23.29;37.69;97770.94;5095506;28;20058;-47
2023/03/09 10:56:30;;;;;;;9.02;3.65;;;;;;;23.83;37.28;97782.44;5113048;28;20399;-46
2023/03/09 10:59:08;;;;;;;4.75;3.25;;;;;;;24.59;35.14;97783.25;5095630;28;20107;-46
2023/03/09 11:01:45;;;;;;;6.40;2.83;;;;;;;24.54;33.73;97786.13;5095267;28;20560;-46
2023/03/09 11:04:50;;;;;;;5.82;2.90;;;;;;;24.51;34.60;97771.44;5113728;28;20076;-45
2023/03/09 11:07:31;;;;;;;6.57;2.80;;;;;;;23.91;34.31;97783.56;5095268;28;20020;-47
2023/03/09 11:10:35;;;;;;;6.65;2.60;;;;;;;22.46;35.99;97788.06;5112631;28;20035;-45
2023/03/09 11:13:56;;;;;;;9.07;3.67;;;;;;;21.22;38.47;97788.72;5095146;28;20063;-46
2023/03/09 11:16:42;;;;;;;7.75;3.35;;;;;;;20.47;40.35;97805.53;5113239;28;20519;-45
2023/03/09 11:19:28;;;;;;;7.05;3.55;;;;;;;19.83;40.67;97804.94;5113676;28;20130;-46
2023/03/09 11:21:57;;;;;;;6.28;3.75;;;;;;;19.33;42.83;97802.41;5113226;28;20904;-46
2023/03/09 11:24:59;;;;;;;6.65;3.58;;;;;;;19.27;43.56;97796.34;5113201;28;20034;-46
2023/03/09 11:27:35;;;;;;;7.80;3.80;;;;;;;19.27;43.58;97777.72;5094862;28;20180;-45
2023/03/09 11:30:17;;;;;;;6.07;3.05;;;;;;;19.15;44.63;97795.91;5113081;28;20039;-45
2023/03/09 11:32:46;;;;;;;7.45;3.75;;;;;;;19.53;44.43;97804.91;5113086;28;20053;-45
2023/03/09 11:35:14;;;;;;;8.70;3.72;;;;;;;20.00;42.95;97783.97;5112500;28;20016;-45
2023/03/09 11:38:20;;;;;;;7.78;3.13;;;;;;;20.02;41.83;97749.84;5112964;28;20027;-45
2023/03/09 11:40:58;;;;;;;7.30;3.30;;;;;;;19.93;41.73;97770.97;5112844;28;20026;-45
2023/03/09 11:43:32;;;;;;;5.68;3.00;;;;;;;19.98;42.24;97770.16;5094656;28;20039;-45
2023/03/09 11:46:08;;;;;;;5.68;3.58;;;;;;;20.45;42.18;97776.47;5112884;28;20028;-45
2023/03/09 11:49:08;;;;;;;10.45;3.42;;;;;;;20.67;41.07;97786.63;5112759;28;20378;-46
2023/03/09 11:52:04;;;;;;;7.07;3.33;;;;;;;20.10;40.48;97783.03;5112658;28;20485;-46
2023/03/09 11:55:03;;;;;;;5.15;2.80;;;;;;;19.51;41.40;97800.94;5112749;28;20509;-45
2023/03/09 11:58:06;;;;;;;5.78;3.28;;;;;;;19.14;42.35;97787.13;5097725;28;20390;-46
2023/03/09 12:01:01;;;;;;;8.90;3.28;;;;;;;18.95;43.81;97796.84;5112497;28;20405;-46
2023/03/09 12:03:37;;;;;;;6.90;2.92;;;;;;;18.87;43.92;97790.25;5112573;28;20063;-45
2023/03/09 12:06:50;;;;;;;7.20;2.80;;;;;;;19.06;45.50;97789.63;5112146;28;20065;-45
2023/03/09 12:09:34;;;;;;;3.85;2.20;;;;;;;19.32;43.45;97791.00;5112167;28;20027;-45
2023/03/09 12:12:25;;;;;;;6.53;3.22;;;;;;;19.06;42.24;97789.63;5112347;28;20034;-46
2023/03/09 12:15:17;;;;;;;7.95;4.10;;;;;;;18.91;43.64;97787.84;5091545;28;20031;-45
2023/03/09 12:18:00;;;;;;;6.00;3.22;;;;;;;18.75;43.84;97798.56;5094060;28;20036;-46
2023/03/09 12:20:56;;;;;;;7.88;3.40;;;;;;;18.83;44.23;97794.53;5093963;28;20122;-45